Time;durP1;ratioP1;P1;durP2;ratioP2;P2;SDS_P1;SDS_P2;PMS_P1;PMS_P2;Temp;Humidity;BMP_temperature;BMP_pressure;BME280_temperature;BME280_humidity;BME280_pressure;Samples;Min_cycle;Max_cycle;Signal;HPM_P1;HPM_P2
2023/03/07 00:00:41;;;;;;;6.38;5.55;;;5.90;99.90;;;;;;4999552;28;20052;-42
2023/03/07 00:03:10;;;;;;;7.10;5.60;;;6.00;99.90;;;;;;4998074;28;20022;-44
2023/03/07 00:05:35;;;;;;;5.70;5.20;;;6.00;99.90;;;;;;4999430;28;20037;-43
2023/03/07 00:08:21;;;;;;;6.50;5.88;;;6.00;99.90;;;;;;4999963;28;20045;-42
2023/03/07 00:10:47;;;;;;;5.50;5.00;;;6.00;99.90;;;;;;4983402;28;20137;-43
2023/03/07 00:13:12;;;;;;;6.20;5.53;;;6.00;99.90;;;;;;4999473;28;20026;-42
2023/03/07 00:15:40;;;;;;;6.43;5.45;;;6.00;99.90;;;;;;4999604;28;20125;-43
2023/03/07 00:18:06;;;;;;;5.93;5.32;;;5.90;99.90;;;;;;4998835;28;20084;-42
2023/03/07 00:20:31;;;;;;;6.47;5.57;;;5.90;99.90;;;;;;4999887;28;20035;-43
2023/03/07 00:22:57;;;;;;;6.03;5.00;;;5.90;99.90;;;;;;4999595;28;20363;-43
2023/03/07 00:25:22;;;;;;;5.95;5.35;;;5.90;99.90;;;;;;4999120;28;20308;-43
2023/03/07 00:27:48;;;;;;;5.78;5.15;;;5.90;99.90;;;;;;5000093;28;20034;-41
2023/03/07 00:30:17;;;;;;;5.38;4.80;;;5.80;99.90;;;;;;4999054;28;20030;-42
2023/03/07 00:32:42;;;;;;;5.53;4.95;;;5.80;99.90;;;;;;4997971;28;20124;-42
2023/03/07 00:35:10;;;;;;;5.43;4.80;;;5.80;99.90;;;;;;4999698;28;20524;-42
2023/03/07 00:37:36;;;;;;;6.25;4.95;;;5.90;99.90;;;;;;4998865;28;20041;-42
2023/03/07 00:40:06;;;;;;;5.20;4.70;;;5.90;99.90;;;;;;4999672;28;20034;-42
2023/03/07 00:42:32;;;;;;;6.65;5.07;;;5.80;99.90;;;;;;4998374;28;20029;-43
2023/03/07 00:45:00;;;;;;;5.90;4.75;;;5.80;99.90;;;;;;4998779;28;20437;-43
2023/03/07 00:47:26;;;;;;;5.95;4.95;;;5.80;99.90;;;;;;4998964;28;20029;-43
2023/03/07 00:49:51;;;;;;;6.10;4.45;;;5.80;99.90;;;;;;4999000;28;20030;-43
2023/03/07 00:52:17;;;;;;;7.70;4.80;;;5.80;99.90;;;;;;4999263;28;21061;-43
2023/03/07 00:54:42;;;;;;;5.50;4.72;;;5.80;99.90;;;;;;4999802;28;20089;-43
2023/03/07 00:57:08;;;;;;;5.28;4.32;;;5.80;99.90;;;;;;4998412;28;20053;-40
2023/03/07 00:59:33;;;;;;;7.50;4.97;;;5.80;99.90;;;;;;4998704;28;20552;-42
2023/03/07 01:01:59;;;;;;;6.30;4.95;;;5.80;99.90;;;;;;4998664;28;20545;-41
2023/03/07 01:04:24;;;;;;;5.95;5.35;;;5.90;99.90;;;;;;4999374;28;20092;-42
2023/03/07 01:06:50;;;;;;;9.00;5.80;;;5.90;99.90;;;;;;4998599;28;20014;-42
2023/03/07 01:09:22;;;;;;;9.52;6.22;;;5.90;99.90;;;;;;4998388;28;20460;-44
2023/03/07 01:11:48;;;;;;;7.28;6.18;;;5.90;99.90;;;;;;4999103;28;20018;-44
2023/03/07 01:14:17;;;;;;;8.68;6.95;;;5.90;99.90;;;;;;4998687;28;20157;-42
2023/03/07 01:16:51;;;;;;;10.55;6.72;;;5.90;99.90;;;;;;5002858;28;20474;-43
2023/03/07 01:19:20;;;;;;;8.68;6.50;;;5.90;99.90;;;;;;5001948;28;20026;-41
2023/03/07 01:21:46;;;;;;;8.10;6.70;;;5.90;99.90;;;;;;5002192;28;20022;-43
2023/03/07 01:24:13;;;;;;;9.05;7.13;;;6.00;99.90;;;;;;5001772;28;20765;-42
2023/03/07 01:26:39;;;;;;;8.85;7.15;;;6.00;99.90;;;;;;5002240;28;20076;-42
2023/03/07 01:29:05;;;;;;;10.48;8.00;;;6.00;99.90;;;;;;5001745;28;20129;-42
2023/03/07 01:31:34;;;;;;;10.75;8.35;;;6.00;99.90;;;;;;5003354;28;20026;-43
2023/03/07 01:34:01;;;;;;;11.13;8.82;;;6.00;99.90;;;;;;5001418;28;20073;-42
2023/03/07 01:36:31;;;;;;;12.18;8.18;;;6.00;99.90;;;;;;5001796;28;20372;-42
2023/03/07 01:39:12;;;;;;;10.50;8.00;;;6.00;99.90;;;;;;5002071;28;20035;-40
2023/03/07 01:41:39;;;;;;;8.55;7.45;;;6.00;99.90;;;;;;5002350;28;20067;-40
2023/03/07 01:44:17;;;;;;;10.27;8.30;;;6.00;99.90;;;;;;5001499;28;20228;-41
2023/03/07 01:46:52;;;;;;;9.50;6.93;;;6.00;99.90;;;;;;4982955;28;20026;-43
2023/03/07 01:49:41;;;;;;;12.57;8.00;;;6.00;99.90;;;;;;4998367;28;20038;-43
2023/03/07 01:52:11;;;;;;;11.20;7.32;;;6.00;99.90;;;;;;5001496;28;20117;-39
2023/03/07 01:54:39;;;;;;;10.40;6.68;;;6.10;99.90;;;;;;5002351;28;20779;-41
2023/03/07 01:57:05;;;;;;;7.90;6.90;;;6.10;99.90;;;;;;5000887;28;20049;-42
2023/03/07 01:59:39;;;;;;;8.60;6.85;;;6.10;99.90;;;;;;5002573;28;20018;-42
2023/03/07 02:02:10;;;;;;;8.95;6.55;;;6.00;99.90;;;;;;4980945;28;20575;-42
2023/03/07 02:04:48;;;;;;;9.80;6.65;;;6.00;99.90;;;;;;4996904;28;20076;-42
2023/03/07 02:07:15;;;;;;;10.05;6.60;;;6.00;99.90;;;;;;4982427;28;20026;-43
2023/03/07 02:09:42;;;;;;;7.75;5.78;;;6.00;99.90;;;;;;4995505;28;20037;-42
2023/03/07 02:12:09;;;;;;;7.22;5.78;;;6.00;99.90;;;;;;5002030;28;20799;-42
2023/03/07 02:14:54;;;;;;;7.75;6.03;;;6.00;99.90;;;;;;5001675;28;20042;-42
2023/03/07 02:17:20;;;;;;;7.82;5.63;;;6.10;99.90;;;;;;5000281;28;20042;-43
2023/03/07 02:20:07;;;;;;;6.03;5.07;;;6.10;99.90;;;;;;5001748;28;20036;-43
2023/03/07 02:22:32;;;;;;;7.07;5.82;;;6.00;99.90;;;;;;5002046;28;20138;-42
2023/03/07 02:25:04;;;;;;;8.55;5.55;;;6.00;99.90;;;;;;5001502;28;20687;-42
2023/03/07 02:27:35;;;;;;;7.22;5.72;;;6.00;99.90;;;;;;5000795;28;20029;-43
2023/03/07 02:30:00;;;;;;;10.15;6.25;;;6.00;99.90;;;;;;5001324;28;20105;-42
2023/03/07 02:32:29;;;;;;;7.35;5.93;;;6.00;99.90;;;;;;5001640;28;20030;-43
2023/03/07 02:34:57;;;;;;;6.95;5.32;;;5.90;99.90;;;;;;5002322;28;20030;-43
2023/03/07 02:37:31;;;;;;;9.07;6.43;;;5.90;99.90;;;;;;5001407;28;20129;-43
2023/03/07 02:40:00;;;;;;;7.07;5.95;;;5.90;99.90;;;;;;5000718;28;20034;-42
2023/03/07 02:42:28;;;;;;;8.60;6.85;;;5.90;99.90;;;;;;4999200;28;20029;-42
2023/03/07 02:45:02;;;;;;;8.57;6.78;;;5.90;99.90;;;;;;5000788;28;20064;-43
2023/03/07 02:47:28;;;;;;;7.45;5.75;;;5.80;99.90;;;;;;4998337;28;20029;-42
2023/03/07 02:49:54;;;;;;;8.82;6.25;;;5.80;99.90;;;;;;5001581;28;20022;-41
2023/03/07 02:52:20;;;;;;;6.70;5.75;;;5.80;99.90;;;;;;5000326;28;20036;-41
2023/03/07 02:54:49;;;;;;;8.15;6.43;;;5.70;99.90;;;;;;5001224;28;20149;-42
2023/03/07 02:57:15;;;;;;;7.28;5.65;;;5.80;99.90;;;;;;5000913;28;20042;-42
2023/03/07 02:59:40;;;;;;;8.60;5.88;;;5.70;99.90;;;;;;5001220;28;20026;-42
2023/03/07 03:02:06;;;;;;;8.45;6.05;;;5.70;99.90;;;;;;5000574;28;20033;-43
2023/03/07 03:04:32;;;;;;;10.68;6.20;;;5.70;99.90;;;;;;5001537;28;20054;-43
2023/03/07 03:06:58;;;;;;;7.53;6.15;;;5.70;99.90;;;;;;5000827;28;20117;-42
2023/03/07 03:09:24;;;;;;;6.70;4.95;;;5.60;99.90;;;;;;5001204;28;20731;-43
2023/03/07 03:11:49;;;;;;;7.88;5.15;;;5.60;99.90;;;;;;5001430;28;20084;-42
2023/03/07 03:14:15;;;;;;;8.23;4.90;;;5.60;99.90;;;;;;5000139;28;20042;-42
2023/03/07 03:16:41;;;;;;;8.35;5.32;;;5.60;99.90;;;;;;5000830;28;20034;-43
2023/03/07 03:19:07;;;;;;;6.22;5.00;;;5.60;99.90;;;;;;5000311;28;20029;-41
2023/03/07 03:21:32;;;;;;;8.30;4.65;;;5.60;99.90;;;;;;5000396;28;20532;-41
2023/03/07 03:24:06;;;;;;;8.68;4.82;;;5.60;99.90;;;;;;4999521;28;20069;-42
2023/03/07 03:26:33;;;;;;;6.00;4.38;;;5.60;99.90;;;;;;5000627;28;20026;-43
2023/03/07 03:28:59;;;;;;;5.68;4.43;;;5.60;99.90;;;;;;4999850;28;20028;-41
2023/03/07 03:31:25;;;;;;;6.18;4.45;;;5.60;99.90;;;;;;4998743;28;20041;-46
2023/03/07 03:33:51;;;;;;;7.60;4.38;;;5.60;99.90;;;;;;4999077;28;20033;-42
2023/03/07 03:36:18;;;;;;;5.65;4.03;;;5.50;99.90;;;;;;4999558;28;20028;-44
2023/03/07 03:38:59;;;;;;;7.40;4.25;;;5.60;99.90;;;;;;4999374;28;20068;-43
2023/03/07 03:41:25;;;;;;;6.78;4.03;;;5.60;99.90;;;;;;4999949;28;20030;-44
2023/03/07 03:43:51;;;;;;;7.63;4.75;;;5.60;99.90;;;;;;5000015;28;20036;-42
2023/03/07 03:46:18;;;;;;;6.85;4.38;;;5.60;99.90;;;;;;4999971;28;20026;-42
2023/03/07 03:48:49;;;;;;;8.32;4.60;;;5.60;99.90;;;;;;4999955;28;20105;-42
2023/03/07 03:51:14;;;;;;;9.70;5.30;;;5.60;99.90;;;;;;4999844;28;20049;-42
2023/03/07 03:53:40;;;;;;;8.63;5.32;;;5.60;99.90;;;;;;5000258;28;20034;-41
2023/03/07 03:56:14;;;;;;;6.15;4.97;;;5.60;99.90;;;;;;4998518;28;20045;-43
2023/03/07 03:58:40;;;;;;;8.50;4.95;;;5.60;99.90;;;;;;5000485;28;20135;-43
2023/03/07 04:01:09;;;;;;;8.30;4.95;;;5.70;99.90;;;;;;4999235;28;20640;-43
2023/03/07 04:03:37;;;;;;;8.43;4.65;;;5.70;99.90;;;;;;4999207;28;20036;-43
2023/03/07 04:06:05;;;;;;;9.00;5.32;;;5.70;99.90;;;;;;4998686;28;20119;-43
2023/03/07 04:08:31;;;;;;;8.90;5.38;;;5.70;99.90;;;;;;4999532;28;20025;-42
2023/03/07 04:10:57;;;;;;;7.13;5.30;;;5.70;99.90;;;;;;4999518;28;20025;-42
2023/03/07 04:13:23;;;;;;;8.43;5.65;;;5.70;99.90;;;;;;4999238;28;20582;-42
2023/03/07 04:15:49;;;;;;;8.57;5.80;;;5.70;99.90;;;;;;4999321;28;20038;-41
2023/03/07 04:18:17;;;;;;;8.30;5.85;;;5.70;99.90;;;;;;4999131;28;20096;-42
2023/03/07 04:20:44;;;;;;;8.00;5.45;;;5.80;99.90;;;;;;4999836;28;20029;-42
2023/03/07 04:23:10;;;;;;;8.45;6.38;;;5.70;99.90;;;;;;4998206;28;20030;-43
2023/03/07 04:25:35;;;;;;;9.35;6.50;;;5.80;99.90;;;;;;4999402;28;20132;-40
2023/03/07 04:28:01;;;;;;;11.25;6.88;;;5.80;99.90;;;;;;4999315;28;20048;-41
2023/03/07 04:30:27;;;;;;;8.27;5.25;;;5.80;99.90;;;;;;4998228;28;20034;-42
2023/03/07 04:32:52;;;;;;;7.43;6.18;;;5.80;99.90;;;;;;4999556;28;20118;-42
2023/03/07 04:35:18;;;;;;;8.43;6.10;;;5.80;99.90;;;;;;4997346;28;20119;-42
2023/03/07 04:37:43;;;;;;;9.05;6.28;;;5.80;99.90;;;;;;4999202;28;20084;-43
2023/03/07 04:40:10;;;;;;;9.82;6.50;;;5.80;99.90;;;;;;4997860;28;20026;-43
2023/03/07 04:42:35;;;;;;;7.00;5.88;;;5.80;99.90;;;;;;4998552;28;20088;-38
2023/03/07 04:45:01;;;;;;;7.50;5.22;;;5.80;99.90;;;;;;4998791;28;20560;-32
2023/03/07 04:47:26;;;;;;;5.88;5.28;;;5.80;99.90;;;;;;4999806;28;20445;-42
2023/03/07 04:49:52;;;;;;;6.13;4.80;;;5.80;99.90;;;;;;5001149;28;20080;-42
2023/03/07 04:52:27;;;;;;;7.50;5.68;;;5.80;99.90;;;;;;5002676;28;20565;-43
2023/03/07 04:54:52;;;;;;;7.82;4.88;;;5.80;99.90;;;;;;5002871;28;20066;-43
2023/03/07 04:57:21;;;;;;;10.25;5.38;;;5.70;99.90;;;;;;5003583;28;20501;-42
2023/03/07 04:59:46;;;;;;;7.68;4.78;;;5.70;99.90;;;;;;5002413;28;20052;-43
2023/03/07 05:02:12;;;;;;;6.80;5.22;;;5.70;99.90;;;;;;5002611;28;20565;-43
2023/03/07 05:04:38;;;;;;;8.70;4.88;;;5.70;99.90;;;;;;5003370;28;20104;-42
2023/03/07 05:07:04;;;;;;;6.53;4.80;;;5.70;99.90;;;;;;5002638;28;20026;-43
2023/03/07 05:09:30;;;;;;;6.53;4.63;;;5.70;99.90;;;;;;5003489;28;20033;-42
2023/03/07 05:11:55;;;;;;;7.68;4.95;;;5.70;99.90;;;;;;5002358;28;20026;-43
2023/03/07 05:14:21;;;;;;;6.03;4.10;;;5.70;99.90;;;;;;5001952;28;20089;-43
2023/03/07 05:16:46;;;;;;;5.80;4.60;;;5.70;99.90;;;;;;5001833;28;20041;-41
2023/03/07 05:19:12;;;;;;;6.07;4.38;;;5.70;99.90;;;;;;5001220;28;20179;-42
2023/03/07 05:21:39;;;;;;;5.35;4.32;;;5.60;99.90;;;;;;5002761;28;20034;-43
2023/03/07 05:24:06;;;;;;;7.32;4.85;;;5.70;99.90;;;;;;5002935;28;20118;-43
2023/03/07 05:26:32;;;;;;;7.03;4.70;;;5.60;99.90;;;;;;5002503;28;20147;-43
2023/03/07 05:28:58;;;;;;;5.60;4.60;;;5.70;99.90;;;;;;5003096;28;20117;-43
2023/03/07 05:31:23;;;;;;;9.20;5.30;;;5.70;99.90;;;;;;5002567;28;20028;-43
2023/03/07 05:33:49;;;;;;;7.45;5.30;;;5.70;99.90;;;;;;5002471;28;20030;-43
2023/03/07 05:36:15;;;;;;;9.20;5.65;;;5.60;99.90;;;;;;5002513;28;20026;-43
2023/03/07 05:38:40;;;;;;;7.35;5.03;;;5.60;99.90;;;;;;5003541;28;20022;-43
2023/03/07 05:41:09;;;;;;;7.15;5.30;;;5.60;99.90;;;;;;5001954;28;20108;-43
2023/03/07 05:43:35;;;;;;;7.30;5.00;;;5.60;99.90;;;;;;5002707;28;20029;-43
2023/03/07 05:46:00;;;;;;;9.32;5.20;;;5.60;99.90;;;;;;5001990;28;20033;-43
2023/03/07 05:48:26;;;;;;;8.25;5.03;;;5.50;99.90;;;;;;5001488;28;20022;-43
2023/03/07 05:50:51;;;;;;;7.65;4.20;;;5.50;99.90;;;;;;5002893;28;20147;-43
2023/03/07 05:53:17;;;;;;;6.03;3.67;;;5.40;99.90;;;;;;5001460;28;20481;-42
2023/03/07 05:55:43;;;;;;;6.97;3.80;;;5.30;99.90;;;;;;5001430;28;20660;-42
2023/03/07 05:58:09;;;;;;;5.60;3.33;;;5.20;99.90;;;;;;5001526;28;20129;-42
2023/03/07 06:00:34;;;;;;;6.70;3.55;;;5.10;99.90;;;;;;5002308;28;20124;-43
2023/03/07 06:03:01;;;;;;;3.33;2.90;;;5.10;99.90;;;;;;5000932;28;20491;-41
2023/03/07 06:05:27;;;;;;;6.72;3.00;;;5.10;99.90;;;;;;5002639;28;20348;-44
2023/03/07 06:07:52;;;;;;;4.97;2.55;;;5.10;99.90;;;;;;5001577;28;20021;-43
2023/03/07 06:10:19;;;;;;;3.58;2.80;;;5.10;99.90;;;;;;5000314;28;20041;-43
2023/03/07 06:12:52;;;;;;;3.47;2.60;;;5.10;99.90;;;;;;5001806;28;20508;-42
2023/03/07 06:15:19;;;;;;;5.18;3.15;;;5.10;99.90;;;;;;5000516;28;20042;-42
2023/03/07 06:17:44;;;;;;;4.05;2.85;;;5.00;99.90;;;;;;5002270;28;20026;-43
2023/03/07 06:20:11;;;;;;;5.63;3.13;;;5.00;99.90;;;;;;5001107;28;20365;-40
2023/03/07 06:22:37;;;;;;;7.53;3.10;;;5.00;99.90;;;;;;5001060;28;20018;-41
2023/03/07 06:25:06;;;;;;;4.90;3.05;;;5.00;99.90;;;;;;5001371;28;20017;-43
2023/03/07 06:27:33;;;;;;;6.57;2.70;;;4.90;99.90;;;;;;5001762;28;20037;-42
2023/03/07 06:29:58;;;;;;;5.32;1.77;;;4.70;99.90;;;;;;5000770;28;20068;-42
2023/03/07 06:32:24;;;;;;;3.20;1.85;;;4.60;99.90;;;;;;5001567;28;20549;-42
2023/03/07 06:34:50;;;;;;;12.35;2.65;;;4.40;99.90;;;;;;5001543;28;20046;-42
2023/03/07 06:37:15;;;;;;;3.45;1.30;;;4.20;99.90;;;;;;5000193;28;20033;-42
2023/03/07 06:39:44;;;;;;;5.40;1.15;;;4.10;99.90;;;;;;5002043;28;20041;-40
2023/03/07 06:42:09;;;;;;;2.17;1.05;;;4.00;99.90;;;;;;5000514;28;20049;-42
2023/03/07 06:44:38;;;;;;;1.40;1.00;;;3.90;99.90;;;;;;5000509;28;20034;-43
2023/03/07 06:47:07;;;;;;;1.95;0.70;;;3.90;99.90;;;;;;4988137;28;20049;-43
2023/03/07 06:49:32;;;;;;;3.35;1.15;;;3.80;99.90;;;;;;4997617;28;20038;-42
2023/03/07 06:51:58;;;;;;;2.17;0.80;;;3.70;99.90;;;;;;4999225;28;20044;-43
2023/03/07 06:54:23;;;;;;;2.75;0.80;;;3.60;99.90;;;;;;4995762;28;20117;-42
2023/03/07 06:56:50;;;;;;;6.03;1.08;;;3.70;99.90;;;;;;4997144;28;20145;-43
2023/03/07 06:59:16;;;;;;;1.88;0.88;;;3.60;99.90;;;;;;4996309;28;20026;-42
2023/03/07 07:01:41;;;;;;;2.05;0.90;;;3.60;99.90;;;;;;4998058;28;20034;-42
2023/03/07 07:04:09;;;;;;;2.25;0.77;;;3.60;99.90;;;;;;4995886;28;20033;-43
2023/03/07 07:06:35;;;;;;;1.88;0.80;;;3.70;99.90;;;;;;4996986;28;20037;-42
2023/03/07 07:09:00;;;;;;;2.30;0.95;;;3.70;99.90;;;;;;4996636;28;20046;-42
2023/03/07 07:11:27;;;;;;;1.73;0.80;;;3.70;99.90;;;;;;4996849;28;20022;-41
2023/03/07 07:13:53;;;;;;;2.33;0.90;;;3.70;99.90;;;;;;4997779;28;20022;-43
2023/03/07 07:16:18;;;;;;;1.77;1.00;;;3.70;99.90;;;;;;4998077;28;20088;-42
2023/03/07 07:18:45;;;;;;;2.78;1.13;;;3.70;99.90;;;;;;4996667;28;20815;-42
2023/03/07 07:21:10;;;;;;;3.67;1.05;;;3.60;99.90;;;;;;4996919;28;20390;-40
2023/03/07 07:23:36;;;;;;;2.80;1.02;;;3.50;99.90;;;;;;4997147;28;20147;-43
2023/03/07 07:26:04;;;;;;;2.60;1.05;;;3.50;99.90;;;;;;4996560;28;20111;-43
2023/03/07 07:28:30;;;;;;;1.67;1.40;;;3.50;99.90;;;;;;4997288;28;20026;-42
2023/03/07 07:30:56;;;;;;;1.45;0.90;;;3.40;99.90;;;;;;4997091;28;20045;-41
2023/03/07 07:33:21;;;;;;;2.15;1.10;;;3.40;99.90;;;;;;4996273;28;20030;-41
2023/03/07 07:35:47;;;;;;;2.35;1.20;;;3.30;99.90;;;;;;4998006;28;20044;-42
2023/03/07 07:38:13;;;;;;;2.67;1.33;;;3.30;99.90;;;;;;4997073;28;20064;-42
2023/03/07 07:40:39;;;;;;;1.42;1.05;;;3.20;99.90;;;;;;4997360;28;20068;-44
2023/03/07 07:43:05;;;;;;;2.25;1.25;;;3.20;99.90;;;;;;4997521;28;20022;-43
2023/03/07 07:45:33;;;;;;;2.30;1.13;;;3.20;99.90;;;;;;4997216;28;20433;-42
2023/03/07 07:48:02;;;;;;;1.23;0.95;;;3.20;99.90;;;;;;4997280;28;20025;-43
2023/03/07 07:50:27;;;;;;;2.28;1.42;;;3.30;99.90;;;;;;4996249;28;20038;-42
2023/03/07 07:52:53;;;;;;;3.15;2.25;;;3.30;99.90;;;;;;4996543;28;20028;-42
2023/03/07 07:55:19;;;;;;;2.45;1.25;;;3.30;99.90;;;;;;4996310;28;20831;-42
2023/03/07 07:57:44;;;;;;;4.10;1.30;;;3.30;99.90;;;;;;4997957;28;20478;-43
2023/03/07 08:00:12;;;;;;;2.95;1.00;;;3.40;99.90;;;;;;4996592;28;20026;-42
2023/03/07 08:02:40;;;;;;;3.17;1.10;;;3.40;99.90;;;;;;4996394;28;20052;-42
2023/03/07 08:05:09;;;;;;;2.40;0.93;;;3.50;99.90;;;;;;4995688;28;20030;-42
2023/03/07 08:07:34;;;;;;;1.45;1.02;;;3.70;99.90;;;;;;4996410;28;20076;-43
2023/03/07 08:10:00;;;;;;;1.58;0.80;;;3.70;99.90;;;;;;4996038;28;20926;-43
2023/03/07 08:12:25;;;;;;;2.35;1.08;;;3.70;99.90;;;;;;4996444;28;20026;-42
2023/03/07 08:14:51;;;;;;;1.75;1.10;;;3.70;99.90;;;;;;4996268;28;20034;-43
2023/03/07 08:17:17;;;;;;;2.15;1.15;;;3.70;99.90;;;;;;4996416;28;20031;-42
2023/03/07 08:19:42;;;;;;;3.65;1.30;;;3.80;99.90;;;;;;4996403;28;20026;-42
2023/03/07 08:22:08;;;;;;;2.28;1.50;;;3.80;99.90;;;;;;4995418;28;20812;-43
2023/03/07 08:24:34;;;;;;;1.67;1.48;;;3.80;99.90;;;;;;4997913;28;20030;-43
2023/03/07 08:27:00;;;;;;;3.28;1.70;;;3.80;99.90;;;;;;5000555;28;20025;-39
2023/03/07 08:29:26;;;;;;;2.28;1.48;;;3.80;99.90;;;;;;4999954;28;20034;-42
2023/03/07 08:31:53;;;;;;;2.75;1.60;;;3.80;99.90;;;;;;5000777;28;20072;-42
2023/03/07 08:34:21;;;;;;;1.73;1.50;;;3.80;99.90;;;;;;4999993;28;20042;-42
2023/03/07 08:36:47;;;;;;;2.25;1.33;;;3.80;99.90;;;;;;5000520;28;20025;-43
2023/03/07 08:39:13;;;;;;;3.65;2.05;;;3.80;99.90;;;;;;4999666;28;20061;-43
2023/03/07 08:41:38;;;;;;;2.40;2.10;;;3.80;99.90;;;;;;5000271;28;20123;-43
2023/03/07 08:44:04;;;;;;;3.88;2.20;;;3.70;99.90;;;;;;4999055;28;20034;-43
2023/03/07 08:46:29;;;;;;;2.85;1.92;;;3.80;99.90;;;;;;5000125;28;20091;-43
2023/03/07 08:48:55;;;;;;;3.03;1.95;;;3.80;99.90;;;;;;4999376;28;20037;-43
2023/03/07 08:51:21;;;;;;;2.92;2.15;;;3.80;99.90;;;;;;4998645;28;20038;-43
2023/03/07 08:53:46;;;;;;;2.42;2.22;;;3.80;99.90;;;;;;4999820;28;20038;-42
2023/03/07 08:56:19;;;;;;;3.35;2.55;;;3.80;99.90;;;;;;4999338;28;20712;-44
2023/03/07 08:58:45;;;;;;;4.35;2.50;;;3.80;99.90;;;;;;4998858;28;20032;-43
2023/03/07 09:01:11;;;;;;;3.00;2.70;;;3.90;99.90;;;;;;4999995;28;20061;-43
2023/03/07 09:03:46;;;;;;;3.42;2.63;;;3.90;99.90;;;;;;5000055;28;20032;-43
2023/03/07 09:06:18;;;;;;;3.83;3.05;;;3.90;99.90;;;;;;4999518;28;20030;-43
2023/03/07 09:08:43;;;;;;;3.33;2.72;;;3.90;99.90;;;;;;5000404;28;20026;-42
2023/03/07 09:11:09;;;;;;;3.25;2.95;;;3.90;99.90;;;;;;4999050;28;20068;-43
2023/03/07 09:13:35;;;;;;;5.22;3.28;;;3.80;99.90;;;;;;4999769;28;20037;-43
2023/03/07 09:16:03;;;;;;;3.67;3.03;;;3.80;99.90;;;;;;4999783;28;20042;-44
2023/03/07 09:18:29;;;;;;;2.90;2.70;;;3.90;99.90;;;;;;4999128;28;20462;-44
2023/03/07 09:20:58;;;;;;;3.63;2.92;;;3.90;99.90;;;;;;4999837;28;20096;-43
2023/03/07 09:23:24;;;;;;;3.42;2.90;;;4.00;99.90;;;;;;4999232;28;20114;-44
2023/03/07 09:25:50;;;;;;;3.40;3.10;;;4.00;99.90;;;;;;4999351;28;20030;-44
2023/03/07 09:28:15;;;;;;;2.75;2.55;;;4.10;99.90;;;;;;4998485;28;20083;-43
2023/03/07 09:30:41;;;;;;;3.65;3.05;;;4.10;99.90;;;;;;4999560;28;20036;-43
2023/03/07 09:33:07;;;;;;;3.83;2.70;;;4.20;99.90;;;;;;4996866;28;20060;-43
2023/03/07 09:35:32;;;;;;;3.25;2.95;;;4.20;99.90;;;;;;4998840;28;20046;-43
2023/03/07 09:37:58;;;;;;;3.13;2.72;;;4.20;99.90;;;;;;4999436;28;20501;-43
2023/03/07 09:40:31;;;;;;;3.20;2.90;;;4.20;99.90;;;;;;4998070;28;20032;-44
2023/03/07 09:43:05;;;;;;;3.80;3.00;;;4.30;99.90;;;;;;4999053;28;20037;-43
2023/03/07 09:45:43;;;;;;;3.05;2.72;;;4.30;99.90;;;;;;4998824;28;20827;-43
2023/03/07 09:48:11;;;;;;;4.03;3.20;;;4.40;99.90;;;;;;4997432;28;20058;-42
2023/03/07 09:50:50;;;;;;;4.43;3.75;;;4.40;99.90;;;;;;4998084;28;20096;-42
2023/03/07 09:53:36;;;;;;;4.38;3.85;;;4.40;99.90;;;;;;4998612;28;20040;-43
2023/03/07 09:56:15;;;;;;;5.72;3.83;;;4.40;99.90;;;;;;4998117;28;20285;-43
2023/03/07 09:58:48;;;;;;;6.63;3.50;;;4.40;99.90;;;;;;4998456;28;20095;-42
2023/03/07 10:01:18;;;;;;;4.20;2.83;;;4.40;99.90;;;;;;4998048;28;20504;-42
2023/03/07 10:03:55;;;;;;;3.10;2.80;;;4.50;99.90;;;;;;4999448;28;20903;-43
2023/03/07 10:06:33;;;;;;;2.88;2.55;;;4.50;99.90;;;;;;4998571;28;20041;-42
2023/03/07 10:09:04;;;;;;;3.78;2.50;;;4.40;99.90;;;;;;4996654;28;20030;-42
2023/03/07 10:11:55;;;;;;;2.80;2.47;;;4.50;99.90;;;;;;4998770;28;20061;-43
2023/03/07 10:14:40;;;;;;;3.17;2.50;;;4.50;99.90;;;;;;4986835;28;20034;-43
2023/03/07 10:17:13;;;;;;;2.70;2.40;;;4.50;99.90;;;;;;4998462;28;20117;-42
2023/03/07 10:19:52;;;;;;;3.47;2.70;;;4.60;99.90;;;;;;4997686;28;20038;-43
2023/03/07 10:22:32;;;;;;;4.40;2.90;;;4.60;99.90;;;;;;4997619;28;20030;-42
2023/03/07 10:25:23;;;;;;;3.67;2.90;;;4.70;99.90;;;;;;4998016;28;20041;-43
2023/03/07 10:27:53;;;;;;;4.75;2.80;;;4.70;99.90;;;;;;4998801;28;20098;-42
2023/03/07 10:30:19;;;;;;;3.00;2.70;;;4.80;99.90;;;;;;4998040;28;20061;-43
2023/03/07 10:32:47;;;;;;;2.60;2.40;;;4.90;99.90;;;;;;4998038;28;20477;-44
2023/03/07 10:35:23;;;;;;;2.95;2.67;;;4.90;99.90;;;;;;4997811;28;20069;-42
2023/03/07 10:38:09;;;;;;;3.00;2.72;;;5.00;99.90;;;;;;4998503;28;20824;-43
2023/03/07 10:40:48;;;;;;;3.75;2.25;;;5.10;99.90;;;;;;4997022;28;20167;-42
2023/03/07 10:43:30;;;;;;;4.03;2.72;;;5.20;99.90;;;;;;4996965;28;20034;-43
2023/03/07 10:46:10;;;;;;;3.00;2.70;;;5.20;99.90;;;;;;4995475;28;20544;-42
2023/03/07 10:48:39;;;;;;;3.35;2.55;;;5.10;99.90;;;;;;4996451;28;20026;-42
2023/03/07 10:51:38;;;;;;;3.13;2.60;;;5.10;99.90;;;;;;4996646;28;20038;-43
2023/03/07 10:54:09;;;;;;;3.33;2.30;;;5.20;99.90;;;;;;4995876;28;20052;-43
2023/03/07 10:56:34;;;;;;;2.60;2.40;;;5.20;99.90;;;;;;4997592;28;20886;-43
2023/03/07 10:59:03;;;;;;;2.97;2.35;;;5.10;99.90;;;;;;4998258;28;20026;-43
2023/03/07 11:01:30;;;;;;;2.42;1.83;;;5.10;99.90;;;;;;4997575;28;20030;-43
2023/03/07 11:04:01;;;;;;;2.03;1.65;;;5.20;99.90;;;;;;4996947;28;20026;-43
2023/03/07 11:06:49;;;;;;;2.60;1.67;;;5.20;99.90;;;;;;4997064;28;20030;-43
2023/03/07 11:09:26;;;;;;;3.20;1.63;;;5.20;99.90;;;;;;4997415;28;20044;-42
2023/03/07 11:12:03;;;;;;;3.95;1.70;;;5.30;99.90;;;;;;4997140;28;20033;-42
2023/03/07 11:14:29;;;;;;;2.92;1.70;;;5.20;99.90;;;;;;4995360;28;20140;-42
2023/03/07 11:16:55;;;;;;;2.90;1.63;;;5.20;99.90;;;;;;4997264;28;20488;-44
2023/03/07 11:19:42;;;;;;;2.83;1.48;;;5.30;99.90;;;;;;4996880;28;20038;-42
2023/03/07 11:22:22;;;;;;;2.15;1.55;;;5.20;99.90;;;;;;4997693;28;20500;-43
2023/03/07 11:24:53;;;;;;;3.88;1.35;;;5.20;99.90;;;;;;4997097;28;20314;-43
2023/03/07 11:27:42;;;;;;;1.38;1.27;;;5.20;99.90;;;;;;4994331;28;20729;-43
2023/03/07 11:30:37;;;;;;;2.42;1.60;;;5.20;99.90;;;;;;4996699;28;20111;-43
2023/03/07 11:33:02;;;;;;;3.95;1.50;;;5.20;99.90;;;;;;4996486;28;20052;-43
2023/03/07 11:35:45;;;;;;;2.90;1.55;;;5.30;99.90;;;;;;4996975;28;20061;-43
2023/03/07 11:38:38;;;;;;;4.05;1.33;;;5.30;99.90;;;;;;4996431;28;20980;-42
2023/03/07 11:41:10;;;;;;;2.47;1.33;;;5.40;99.90;;;;;;4996372;28;20034;-43
2023/03/07 11:43:50;;;;;;;2.45;1.40;;;5.40;99.90;;;;;;4996945;28;20044;-43
2023/03/07 11:46:43;;;;;;;1.50;1.40;;;5.40;99.90;;;;;;4996409;28;20112;-43
2023/03/07 11:49:21;;;;;;;1.55;1.45;;;5.40;99.90;;;;;;4995482;28;20026;-44
2023/03/07 11:51:47;;;;;;;1.80;1.70;;;5.30;99.90;;;;;;4997145;28;20088;-43
2023/03/07 11:54:42;;;;;;;3.20;1.40;;;5.30;99.90;;;;;;4995372;28;20049;-43
2023/03/07 11:57:14;;;;;;;3.20;1.80;;;5.30;99.90;;;;;;4997096;28;20744;-43
2023/03/07 11:59:50;;;;;;;2.53;1.80;;;5.20;99.90;;;;;;4995808;28;20064;-43
2023/03/07 12:02:28;;;;;;;1.80;1.27;;;5.20;99.90;;;;;;4996310;28;20122;-43
2023/03/07 12:05:17;;;;;;;2.35;1.45;;;5.20;99.90;;;;;;4996689;28;20480;-43
2023/03/07 12:08:14;;;;;;;1.63;1.30;;;5.30;99.90;;;;;;4995440;28;20081;-43
2023/03/07 12:10:52;;;;;;;2.33;1.58;;;5.40;99.90;;;;;;4958344;28;20034;-43
2023/03/07 12:13:31;;;;;;;1.92;1.65;;;5.40;99.90;;;;;;4997092;28;20042;-44
2023/03/07 12:16:39;;;;;;;3.75;1.52;;;5.40;99.90;;;;;;4995893;28;20128;-44
2023/03/07 12:19:32;;;;;;;3.85;1.75;;;5.30;99.90;;;;;;4995717;28;20531;-43
2023/03/07 12:22:11;;;;;;;3.17;1.90;;;5.30;99.90;;;;;;4996477;28;20692;-43
2023/03/07 12:24:59;;;;;;;2.40;1.67;;;5.20;99.90;;;;;;4996811;28;20040;-41
2023/03/07 12:27:37;;;;;;;2.85;1.70;;;5.10;99.90;;;;;;4993008;28;20799;-43
2023/03/07 12:30:13;;;;;;;2.63;1.58;;;4.90;99.90;;;;;;4994599;28;20073;-43
2023/03/07 12:32:38;;;;;;;3.67;1.55;;;4.60;99.90;;;;;;4996683;28;20030;-43
2023/03/07 12:35:23;;;;;;;1.70;0.90;;;4.40;99.90;;;;;;4995694;28;20045;-43
2023/03/07 12:38:06;;;;;;;2.65;1.20;;;4.30;99.90;;;;;;4995474;28;20030;-43
2023/03/07 12:40:40;;;;;;;3.45;1.27;;;4.20;99.90;;;;;;4996151;28;20094;-43
2023/03/07 12:43:28;;;;;;;3.20;1.30;;;4.00;99.90;;;;;;4995800;28;20037;-43
2023/03/07 12:46:12;;;;;;;2.58;1.55;;;3.90;99.90;;;;;;4995909;28;20793;-43
2023/03/07 12:49:08;;;;;;;2.70;1.27;;;3.80;99.90;;;;;;4996133;28;20030;-42
2023/03/07 12:51:42;;;;;;;2.70;0.80;;;3.70;99.90;;;;;;4982710;28;20096;-43
2023/03/07 12:54:35;;;;;;;3.67;0.80;;;3.80;99.90;;;;;;4996212;28;20038;-43
2023/03/07 12:57:15;;;;;;;1.65;1.00;;;3.80;99.90;;;;;;4995928;28;20696;-43
2023/03/07 12:59:44;;;;;;;2.15;0.80;;;3.70;99.90;;;;;;4996351;28;20108;-43
2023/03/07 13:02:29;;;;;;;2.88;0.88;;;3.70;99.90;;;;;;4995976;28;20032;-44
2023/03/07 13:04:56;;;;;;;3.30;0.80;;;3.70;99.90;;;;;;4993143;28;20404;-43
2023/03/07 13:07:28;;;;;;;1.25;0.70;;;3.80;99.90;;;;;;4996024;28;20022;-43
2023/03/07 13:09:57;;;;;;;1.35;0.77;;;3.80;99.90;;;;;;4993972;28;20113;-42